sensor_id;sensor_type;location;lat;lon;timestamp;temperature;humidity
25877;DHT22;13692;47.480;19.216;2023-08-06T00:00:57;21.10;99.90
25877;DHT22;13692;47.480;19.216;2023-08-06T00:03:24;21.00;99.90
25877;DHT22;13692;47.480;19.216;2023-08-06T00:05:51;21.00;99.90
25877;DHT22;13692;47.480;19.216;2023-08-06T00:08:18;21.00;99.90
25877;DHT22;13692;47.480;19.216;2023-08-06T00:10:47;21.00;99.90
25877;DHT22;13692;47.480;19.216;2023-08-06T00:13:15;21.10;99.90
25877;DHT22;13692;47.480;19.216;2023-08-06T00:15:42;21.10;99.90
25877;DHT22;13692;47.480;19.216;2023-08-06T00:18:09;21.10;99.90
25877;DHT22;13692;47.480;19.216;2023-08-06T00:20:39;21.10;99.90
25877;DHT22;13692;47.480;19.216;2023-08-06T00:23:07;21.20;99.90
25877;DHT22;13692;47.480;19.216;2023-08-06T00:25:52;21.10;99.90
25877;DHT22;13692;47.480;19.216;2023-08-06T00:28:19;21.10;99.90
25877;DHT22;13692;47.480;19.216;2023-08-06T00:30:46;21.10;99.90
25877;DHT22;13692;47.480;19.216;2023-08-06T00:33:13;21.10;99.90
25877;DHT22;13692;47.480;19.216;2023-08-06T00:35:40;21.10;99.90
25877;DHT22;13692;47.480;19.216;2023-08-06T00:38:07;21.10;99.90
25877;DHT22;13692;47.480;19.216;2023-08-06T00:40:34;21.10;99.90
25877;DHT22;13692;47.480;19.216;2023-08-06T00:43:01;21.10;99.90
25877;DHT22;13692;47.480;19.216;2023-08-06T00:45:28;21.10;99.90
25877;DHT22;13692;47.480;19.216;2023-08-06T00:47:56;21.10;99.90
25877;DHT22;13692;47.480;19.216;2023-08-06T00:50:23;21.10;99.90
25877;DHT22;13692;47.480;19.216;2023-08-06T00:52:50;21.10;99.90
25877;DHT22;13692;47.480;19.216;2023-08-06T00:55:17;21.10;99.90
25877;DHT22;13692;47.480;19.216;2023-08-06T00:57:45;21.10;99.90
25877;DHT22;13692;47.480;19.216;2023-08-06T01:00:12;21.10;99.90
25877;DHT22;13692;47.480;19.216;2023-08-06T01:02:39;21.00;99.90
25877;DHT22;13692;47.480;19.216;2023-08-06T01:05:06;21.00;99.90
25877;DHT22;13692;47.480;19.216;2023-08-06T01:13:08;21.00;99.90
25877;DHT22;13692;47.480;19.216;2023-08-06T01:15:49;21.00;99.90
25877;DHT22;13692;47.480;19.216;2023-08-06T01:18:18;21.00;99.90
25877;DHT22;13692;47.480;19.216;2023-08-06T01:20:45;21.00;99.90
25877;DHT22;13692;47.480;19.216;2023-08-06T01:23:12;21.00;99.90
25877;DHT22;13692;47.480;19.216;2023-08-06T01:26:01;21.00;99.90
25877;DHT22;13692;47.480;19.216;2023-08-06T01:31:22;21.00;99.90
25877;DHT22;13692;47.480;19.216;2023-08-06T01:33:51;20.90;99.90
25877;DHT22;13692;47.480;19.216;2023-08-06T01:36:20;21.00;99.90
25877;DHT22;13692;47.480;19.216;2023-08-06T01:38:48;21.00;99.90
25877;DHT22;13692;47.480;19.216;2023-08-06T01:41:15;20.90;99.90
25877;DHT22;13692;47.480;19.216;2023-08-06T01:43:42;20.90;99.90
25877;DHT22;13692;47.480;19.216;2023-08-06T01:46:09;20.90;99.90
25877;DHT22;13692;47.480;19.216;2023-08-06T01:48:37;20.90;99.90
25877;DHT22;13692;47.480;19.216;2023-08-06T01:51:05;20.90;99.90
25877;DHT22;13692;47.480;19.216;2023-08-06T01:53:33;20.80;99.90
25877;DHT22;13692;47.480;19.216;2023-08-06T01:56:00;20.90;99.90
25877;DHT22;13692;47.480;19.216;2023-08-06T01:58:27;20.90;99.90
25877;DHT22;13692;47.480;19.216;2023-08-06T02:00:54;20.80;99.90
25877;DHT22;13692;47.480;19.216;2023-08-06T02:03:21;20.80;99.90
25877;DHT22;13692;47.480;19.216;2023-08-06T02:05:48;20.80;99.90
25877;DHT22;13692;47.480;19.216;2023-08-06T02:08:15;20.80;99.90
25877;DHT22;13692;47.480;19.216;2023-08-06T02:10:42;20.80;99.90
25877;DHT22;13692;47.480;19.216;2023-08-06T02:13:09;20.80;99.90
25877;DHT22;13692;47.480;19.216;2023-08-06T02:15:36;20.80;99.90
25877;DHT22;13692;47.480;19.216;2023-08-06T02:18:08;20.80;99.90
25877;DHT22;13692;47.480;19.216;2023-08-06T02:20:35;20.80;99.90
25877;DHT22;13692;47.480;19.216;2023-08-06T02:23:02;20.70;99.90
25877;DHT22;13692;47.480;19.216;2023-08-06T02:25:29;20.70;99.90
25877;DHT22;13692;47.480;19.216;2023-08-06T02:27:56;20.70;99.90
25877;DHT22;13692;47.480;19.216;2023-08-06T02:30:23;20.70;99.90
25877;DHT22;13692;47.480;19.216;2023-08-06T02:32:49;20.70;99.90
25877;DHT22;13692;47.480;19.216;2023-08-06T02:35:16;20.70;99.90
25877;DHT22;13692;47.480;19.216;2023-08-06T02:37:43;20.70;99.90
25877;DHT22;13692;47.480;19.216;2023-08-06T02:40:10;20.70;99.90
25877;DHT22;13692;47.480;19.216;2023-08-06T02:42:37;20.70;99.90
25877;DHT22;13692;47.480;19.216;2023-08-06T02:45:05;20.60;99.90
25877;DHT22;13692;47.480;19.216;2023-08-06T02:47:32;20.60;99.90
25877;DHT22;13692;47.480;19.216;2023-08-06T02:49:59;20.60;99.90
25877;DHT22;13692;47.480;19.216;2023-08-06T02:52:25;20.60;99.90
25877;DHT22;13692;47.480;19.216;2023-08-06T02:54:52;20.60;99.90
25877;DHT22;13692;47.480;19.216;2023-08-06T02:57:19;20.60;99.90
25877;DHT22;13692;47.480;19.216;2023-08-06T02:59:46;20.60;99.90
25877;DHT22;13692;47.480;19.216;2023-08-06T03:02:13;20.50;99.90
25877;DHT22;13692;47.480;19.216;2023-08-06T03:04:40;20.50;99.90
25877;DHT22;13692;47.480;19.216;2023-08-06T03:07:07;20.50;99.90
25877;DHT22;13692;47.480;19.216;2023-08-06T03:09:34;20.50;99.90
25877;DHT22;13692;47.480;19.216;2023-08-06T03:12:01;20.50;99.90
25877;DHT22;13692;47.480;19.216;2023-08-06T03:14:28;20.50;99.90
25877;DHT22;13692;47.480;19.216;2023-08-06T03:16:55;20.40;99.90
25877;DHT22;13692;47.480;19.216;2023-08-06T03:19:22;20.40;99.90
25877;DHT22;13692;47.480;19.216;2023-08-06T03:21:49;20.40;99.90
25877;DHT22;13692;47.480;19.216;2023-08-06T03:24:17;20.40;99.90
25877;DHT22;13692;47.480;19.216;2023-08-06T03:26:43;20.40;99.90
25877;DHT22;13692;47.480;19.216;2023-08-06T03:29:10;20.40;99.90
25877;DHT22;13692;47.480;19.216;2023-08-06T03:31:37;20.40;99.90
25877;DHT22;13692;47.480;19.216;2023-08-06T03:34:04;20.40;99.90
25877;DHT22;13692;47.480;19.216;2023-08-06T03:36:31;20.40;99.90
25877;DHT22;13692;47.480;19.216;2023-08-06T03:38:58;20.40;99.90
25877;DHT22;13692;47.480;19.216;2023-08-06T03:41:25;20.30;99.90
25877;DHT22;13692;47.480;19.216;2023-08-06T03:43:52;20.30;99.90
25877;DHT22;13692;47.480;19.216;2023-08-06T03:46:19;20.20;99.90
25877;DHT22;13692;47.480;19.216;2023-08-06T03:48:46;20.20;99.90
25877;DHT22;13692;47.480;19.216;2023-08-06T03:51:13;20.20;99.90
25877;DHT22;13692;47.480;19.216;2023-08-06T03:53:40;20.20;99.90
25877;DHT22;13692;47.480;19.216;2023-08-06T03:56:07;20.10;99.90
25877;DHT22;13692;47.480;19.216;2023-08-06T03:58:34;20.20;99.90
25877;DHT22;13692;47.480;19.216;2023-08-06T04:01:02;20.10;99.90
25877;DHT22;13692;47.480;19.216;2023-08-06T04:03:29;20.10;99.90
25877;DHT22;13692;47.480;19.216;2023-08-06T04:05:57;20.00;99.90
25877;DHT22;13692;47.480;19.216;2023-08-06T04:08:23;20.00;99.90
25877;DHT22;13692;47.480;19.216;2023-08-06T04:10:54;20.00;99.90
25877;DHT22;13692;47.480;19.216;2023-08-06T04:13:21;19.90;99.90
25877;DHT22;13692;47.480;19.216;2023-08-06T04:15:48;19.90;99.90
25877;DHT22;13692;47.480;19.216;2023-08-06T04:18:15;19.90;99.90
25877;DHT22;13692;47.480;19.216;2023-08-06T04:20:46;19.80;99.90
25877;DHT22;13692;47.480;19.216;2023-08-06T04:23:13;19.80;99.90
25877;DHT22;13692;47.480;19.216;2023-08-06T04:25:40;19.80;99.90
25877;DHT22;13692;47.480;19.216;2023-08-06T04:28:07;19.80;99.90
25877;DHT22;13692;47.480;19.216;2023-08-06T04:30:34;19.80;99.90
25877;DHT22;13692;47.480;19.216;2023-08-06T04:33:01;19.80;99.90
25877;DHT22;13692;47.480;19.216;2023-08-06T04:35:28;19.80;99.90
25877;DHT22;13692;47.480;19.216;2023-08-06T04:37:55;19.80;99.90
25877;DHT22;13692;47.480;19.216;2023-08-06T04:40:22;19.80;99.90
25877;DHT22;13692;47.480;19.216;2023-08-06T04:42:49;19.80;99.90
25877;DHT22;13692;47.480;19.216;2023-08-06T04:45:16;19.80;99.90
25877;DHT22;13692;47.480;19.216;2023-08-06T04:47:43;19.80;99.90
25877;DHT22;13692;47.480;19.216;2023-08-06T04:50:10;19.70;99.90
25877;DHT22;13692;47.480;19.216;2023-08-06T04:52:37;19.70;99.90
25877;DHT22;13692;47.480;19.216;2023-08-06T04:55:05;19.80;99.90
25877;DHT22;13692;47.480;19.216;2023-08-06T04:57:33;19.80;99.90
25877;DHT22;13692;47.480;19.216;2023-08-06T05:00:00;19.80;99.90
25877;DHT22;13692;47.480;19.216;2023-08-06T05:02:27;19.80;99.90
25877;DHT22;13692;47.480;19.216;2023-08-06T05:04:54;19.70;99.90
25877;DHT22;13692;47.480;19.216;2023-08-06T05:07:20;19.70;99.90
25877;DHT22;13692;47.480;19.216;2023-08-06T05:09:47;19.70;99.90
25877;DHT22;13692;47.480;19.216;2023-08-06T05:12:15;19.70;99.90
25877;DHT22;13692;47.480;19.216;2023-08-06T05:14:42;19.60;99.90
25877;DHT22;13692;47.480;19.216;2023-08-06T05:17:08;19.60;99.90
25877;DHT22;13692;47.480;19.216;2023-08-06T05:19:35;19.60;99.90
25877;DHT22;13692;47.480;19.216;2023-08-06T05:22:02;19.50;99.90
25877;DHT22;13692;47.480;19.216;2023-08-06T05:24:29;19.50;99.90
25877;DHT22;13692;47.480;19.216;2023-08-06T05:26:56;19.40;99.90
25877;DHT22;13692;47.480;19.216;2023-08-06T05:29:23;19.40;99.90
25877;DHT22;13692;47.480;19.216;2023-08-06T05:31:50;19.30;99.90
25877;DHT22;13692;47.480;19.216;2023-08-06T05:34:18;19.30;99.90
25877;DHT22;13692;47.480;19.216;2023-08-06T05:36:44;19.20;99.90
25877;DHT22;13692;47.480;19.216;2023-08-06T05:39:11;19.30;99.90
25877;DHT22;13692;47.480;19.216;2023-08-06T05:41:38;19.30;99.90
25877;DHT22;13692;47.480;19.216;2023-08-06T05:44:05;19.20;99.90
25877;DHT22;13692;47.480;19.216;2023-08-06T05:46:32;19.20;99.90
25877;DHT22;13692;47.480;19.216;2023-08-06T05:48:59;19.20;99.90
25877;DHT22;13692;47.480;19.216;2023-08-06T05:51:27;19.20;99.90
25877;DHT22;13692;47.480;19.216;2023-08-06T05:53:55;19.20;99.90
25877;DHT22;13692;47.480;19.216;2023-08-06T05:56:22;19.30;99.90
25877;DHT22;13692;47.480;19.216;2023-08-06T05:58:49;19.30;99.90
25877;DHT22;13692;47.480;19.216;2023-08-06T06:01:19;19.40;99.90
25877;DHT22;13692;47.480;19.216;2023-08-06T06:03:46;19.50;99.90
25877;DHT22;13692;47.480;19.216;2023-08-06T06:06:13;19.50;99.90
25877;DHT22;13692;47.480;19.216;2023-08-06T06:08:43;19.50;99.90
25877;DHT22;13692;47.480;19.216;2023-08-06T06:11:09;19.50;99.90
25877;DHT22;13692;47.480;19.216;2023-08-06T06:13:36;19.50;99.90
25877;DHT22;13692;47.480;19.216;2023-08-06T06:16:04;19.50;99.90
25877;DHT22;13692;47.480;19.216;2023-08-06T06:18:32;19.40;99.90
25877;DHT22;13692;47.480;19.216;2023-08-06T06:20:59;19.50;99.90
25877;DHT22;13692;47.480;19.216;2023-08-06T06:23:26;19.50;99.90
25877;DHT22;13692;47.480;19.216;2023-08-06T06:25:52;19.50;99.90
25877;DHT22;13692;47.480;19.216;2023-08-06T06:28:20;19.40;99.90
25877;DHT22;13692;47.480;19.216;2023-08-06T06:30:47;19.40;99.90
25877;DHT22;13692;47.480;19.216;2023-08-06T06:33:15;19.40;99.90
25877;DHT22;13692;47.480;19.216;2023-08-06T06:35:41;19.50;99.90
25877;DHT22;13692;47.480;19.216;2023-08-06T06:38:08;19.40;99.90
25877;DHT22;13692;47.480;19.216;2023-08-06T06:40:35;19.40;99.90
25877;DHT22;13692;47.480;19.216;2023-08-06T06:43:02;19.40;99.90
25877;DHT22;13692;47.480;19.216;2023-08-06T06:45:29;19.40;99.90
25877;DHT22;13692;47.480;19.216;2023-08-06T06:47:56;19.50;99.90
25877;DHT22;13692;47.480;19.216;2023-08-06T06:50:23;19.50;99.90
25877;DHT22;13692;47.480;19.216;2023-08-06T06:52:50;19.50;99.90
25877;DHT22;13692;47.480;19.216;2023-08-06T06:55:17;19.60;99.90
25877;DHT22;13692;47.480;19.216;2023-08-06T06:57:44;19.60;99.90
25877;DHT22;13692;47.480;19.216;2023-08-06T07:00:11;19.70;99.90
25877;DHT22;13692;47.480;19.216;2023-08-06T07:02:38;19.80;99.90
25877;DHT22;13692;47.480;19.216;2023-08-06T07:05:06;19.80;99.90
25877;DHT22;13692;47.480;19.216;2023-08-06T07:07:34;19.80;99.90
25877;DHT22;13692;47.480;19.216;2023-08-06T07:10:01;19.70;99.90
25877;DHT22;13692;47.480;19.216;2023-08-06T07:12:29;19.60;99.90
25877;DHT22;13692;47.480;19.216;2023-08-06T07:14:56;19.60;99.90
25877;DHT22;13692;47.480;19.216;2023-08-06T07:17:23;19.50;99.90
25877;DHT22;13692;47.480;19.216;2023-08-06T07:19:50;19.50;99.90
25877;DHT22;13692;47.480;19.216;2023-08-06T07:22:16;19.50;99.90
25877;DHT22;13692;47.480;19.216;2023-08-06T07:24:43;19.50;99.90
25877;DHT22;13692;47.480;19.216;2023-08-06T07:27:10;19.60;99.90
25877;DHT22;13692;47.480;19.216;2023-08-06T07:29:37;19.60;99.90
25877;DHT22;13692;47.480;19.216;2023-08-06T07:32:06;19.60;99.90
25877;DHT22;13692;47.480;19.216;2023-08-06T07:34:34;19.50;99.90
25877;DHT22;13692;47.480;19.216;2023-08-06T07:37:01;19.50;99.90
25877;DHT22;13692;47.480;19.216;2023-08-06T07:39:28;19.50;99.90
25877;DHT22;13692;47.480;19.216;2023-08-06T07:41:55;19.40;99.90
25877;DHT22;13692;47.480;19.216;2023-08-06T07:44:22;19.30;99.90
25877;DHT22;13692;47.480;19.216;2023-08-06T07:46:50;19.30;99.90
25877;DHT22;13692;47.480;19.216;2023-08-06T07:49:17;19.20;99.90
25877;DHT22;13692;47.480;19.216;2023-08-06T07:51:44;19.20;99.90
25877;DHT22;13692;47.480;19.216;2023-08-06T07:54:11;19.10;99.90
25877;DHT22;13692;47.480;19.216;2023-08-06T07:56:38;19.10;99.90
25877;DHT22;13692;47.480;19.216;2023-08-06T07:59:05;19.10;99.90
25877;DHT22;13692;47.480;19.216;2023-08-06T08:01:32;19.20;99.90
25877;DHT22;13692;47.480;19.216;2023-08-06T08:03:59;19.20;99.90
25877;DHT22;13692;47.480;19.216;2023-08-06T08:06:26;19.30;99.90
25877;DHT22;13692;47.480;19.216;2023-08-06T08:08:53;19.30;99.90
25877;DHT22;13692;47.480;19.216;2023-08-06T08:11:21;19.20;99.90
25877;DHT22;13692;47.480;19.216;2023-08-06T08:13:48;19.20;99.90
25877;DHT22;13692;47.480;19.216;2023-08-06T08:16:14;19.20;99.90
25877;DHT22;13692;47.480;19.216;2023-08-06T08:18:41;19.10;99.90
25877;DHT22;13692;47.480;19.216;2023-08-06T08:21:09;19.20;99.90
25877;DHT22;13692;47.480;19.216;2023-08-06T08:23:36;19.20;99.90
25877;DHT22;13692;47.480;19.216;2023-08-06T08:26:03;19.20;99.90
25877;DHT22;13692;47.480;19.216;2023-08-06T08:28:30;19.30;99.90
25877;DHT22;13692;47.480;19.216;2023-08-06T08:30:57;19.30;99.90
25877;DHT22;13692;47.480;19.216;2023-08-06T08:33:24;19.30;99.90
25877;DHT22;13692;47.480;19.216;2023-08-06T08:35:51;19.30;99.90
25877;DHT22;13692;47.480;19.216;2023-08-06T08:38:18;19.30;99.90
25877;DHT22;13692;47.480;19.216;2023-08-06T08:40:51;19.20;99.90
25877;DHT22;13692;47.480;19.216;2023-08-06T08:43:21;19.10;99.90
25877;DHT22;13692;47.480;19.216;2023-08-06T08:45:53;19.10;99.90
25877;DHT22;13692;47.480;19.216;2023-08-06T08:48:22;19.20;99.90
25877;DHT22;13692;47.480;19.216;2023-08-06T08:50:49;19.20;99.90
25877;DHT22;13692;47.480;19.216;2023-08-06T08:53:17;19.20;99.90
25877;DHT22;13692;47.480;19.216;2023-08-06T08:55:47;19.20;99.90
25877;DHT22;13692;47.480;19.216;2023-08-06T08:58:15;19.20;99.90
25877;DHT22;13692;47.480;19.216;2023-08-06T09:00:42;19.20;99.90
25877;DHT22;13692;47.480;19.216;2023-08-06T09:03:09;19.30;99.90
25877;DHT22;13692;47.480;19.216;2023-08-06T09:05:42;19.40;99.90
25877;DHT22;13692;47.480;19.216;2023-08-06T09:08:12;19.40;99.90
25877;DHT22;13692;47.480;19.216;2023-08-06T09:10:43;19.40;99.90
25877;DHT22;13692;47.480;19.216;2023-08-06T09:13:11;19.60;99.90
25877;DHT22;13692;47.480;19.216;2023-08-06T09:15:39;19.60;99.90
25877;DHT22;13692;47.480;19.216;2023-08-06T09:18:12;19.60;99.90
25877;DHT22;13692;47.480;19.216;2023-08-06T09:20:39;19.60;99.90
25877;DHT22;13692;47.480;19.216;2023-08-06T09:23:10;19.60;99.90
25877;DHT22;13692;47.480;19.216;2023-08-06T09:25:40;19.70;99.90
25877;DHT22;13692;47.480;19.216;2023-08-06T09:28:07;19.60;99.90
25877;DHT22;13692;47.480;19.216;2023-08-06T09:30:38;19.60;99.90
25877;DHT22;13692;47.480;19.216;2023-08-06T09:33:08;19.50;99.90
25877;DHT22;13692;47.480;19.216;2023-08-06T09:35:40;19.50;99.90
25877;DHT22;13692;47.480;19.216;2023-08-06T09:38:09;19.30;99.90
25877;DHT22;13692;47.480;19.216;2023-08-06T09:40:38;19.20;99.90
25877;DHT22;13692;47.480;19.216;2023-08-06T09:43:05;19.20;99.90
25877;DHT22;13692;47.480;19.216;2023-08-06T09:45:37;19.30;99.90
25877;DHT22;13692;47.480;19.216;2023-08-06T09:48:08;19.40;99.90
25877;DHT22;13692;47.480;19.216;2023-08-06T09:50:37;19.40;99.90
25877;DHT22;13692;47.480;19.216;2023-08-06T09:53:06;19.50;99.90
25877;DHT22;13692;47.480;19.216;2023-08-06T09:55:35;19.50;99.90
25877;DHT22;13692;47.480;19.216;2023-08-06T09:58:02;19.50;99.90
25877;DHT22;13692;47.480;19.216;2023-08-06T10:00:31;19.60;99.90
25877;DHT22;13692;47.480;19.216;2023-08-06T10:03:04;19.60;99.90
25877;DHT22;13692;47.480;19.216;2023-08-06T10:05:33;19.60;99.90
25877;DHT22;13692;47.480;19.216;2023-08-06T10:08:02;19.60;99.90
25877;DHT22;13692;47.480;19.216;2023-08-06T10:10:29;19.70;99.90
25877;DHT22;13692;47.480;19.216;2023-08-06T10:12:58;19.60;99.90
25877;DHT22;13692;47.480;19.216;2023-08-06T10:15:32;19.50;99.90
25877;DHT22;13692;47.480;19.216;2023-08-06T10:18:01;19.40;99.90
25877;DHT22;13692;47.480;19.216;2023-08-06T10:20:36;19.30;99.90
25877;DHT22;13692;47.480;19.216;2023-08-06T10:23:06;19.20;99.90
25877;DHT22;13692;47.480;19.216;2023-08-06T10:25:41;19.20;99.90
25877;DHT22;13692;47.480;19.216;2023-08-06T10:28:10;19.20;99.90
25877;DHT22;13692;47.480;19.216;2023-08-06T10:30:44;19.10;99.90
25877;DHT22;13692;47.480;19.216;2023-08-06T10:33:12;19.10;99.90
25877;DHT22;13692;47.480;19.216;2023-08-06T10:38:22;19.10;99.90
25877;DHT22;13692;47.480;19.216;2023-08-06T10:46:08;19.10;99.90
25877;DHT22;13692;47.480;19.216;2023-08-06T10:48:40;19.20;99.90
25877;DHT22;13692;47.480;19.216;2023-08-06T10:51:09;19.30;99.90
25877;DHT22;13692;47.480;19.216;2023-08-06T10:53:37;19.20;99.90
25877;DHT22;13692;47.480;19.216;2023-08-06T10:56:17;19.20;99.90
25877;DHT22;13692;47.480;19.216;2023-08-06T10:58:46;19.20;99.90
25877;DHT22;13692;47.480;19.216;2023-08-06T11:01:13;19.20;99.90
25877;DHT22;13692;47.480;19.216;2023-08-06T11:03:42;19.20;99.90
25877;DHT22;13692;47.480;19.216;2023-08-06T11:06:10;19.20;99.90
25877;DHT22;13692;47.480;19.216;2023-08-06T11:08:40;19.20;99.90
25877;DHT22;13692;47.480;19.216;2023-08-06T11:11:09;19.20;99.90
25877;DHT22;13692;47.480;19.216;2023-08-06T11:13:37;19.20;99.90
25877;DHT22;13692;47.480;19.216;2023-08-06T11:16:06;19.30;99.90
25877;DHT22;13692;47.480;19.216;2023-08-06T11:18:33;19.40;99.90
25877;DHT22;13692;47.480;19.216;2023-08-06T11:21:01;19.50;99.90
25877;DHT22;13692;47.480;19.216;2023-08-06T11:23:28;19.60;99.90
25877;DHT22;13692;47.480;19.216;2023-08-06T11:25:56;19.60;99.90
25877;DHT22;13692;47.480;19.216;2023-08-06T11:28:24;19.70;99.90
25877;DHT22;13692;47.480;19.216;2023-08-06T11:30:52;19.80;99.90
25877;DHT22;13692;47.480;19.216;2023-08-06T11:33:27;19.90;99.90
25877;DHT22;13692;47.480;19.216;2023-08-06T11:35:56;20.00;99.90
25877;DHT22;13692;47.480;19.216;2023-08-06T11:38:28;20.00;99.90
25877;DHT22;13692;47.480;19.216;2023-08-06T11:40:55;20.20;99.90
25877;DHT22;13692;47.480;19.216;2023-08-06T11:43:23;20.30;99.90
25877;DHT22;13692;47.480;19.216;2023-08-06T11:45:50;20.50;99.90
25877;DHT22;13692;47.480;19.216;2023-08-06T11:48:19;20.80;99.90
25877;DHT22;13692;47.480;19.216;2023-08-06T11:50:46;20.80;99.90
25877;DHT22;13692;47.480;19.216;2023-08-06T11:53:14;20.80;99.90
25877;DHT22;13692;47.480;19.216;2023-08-06T11:55:42;20.60;99.90
25877;DHT22;13692;47.480;19.216;2023-08-06T11:58:10;20.40;99.90
25877;DHT22;13692;47.480;19.216;2023-08-06T12:00:42;20.20;99.90
25877;DHT22;13692;47.480;19.216;2023-08-06T12:03:10;20.20;99.90
25877;DHT22;13692;47.480;19.216;2023-08-06T12:05:37;20.10;99.90
25877;DHT22;13692;47.480;19.216;2023-08-06T12:08:05;20.00;99.90
25877;DHT22;13692;47.480;19.216;2023-08-06T12:10:33;20.00;99.90
25877;DHT22;13692;47.480;19.216;2023-08-06T12:13:00;20.00;99.90
25877;DHT22;13692;47.480;19.216;2023-08-06T12:15:27;20.00;99.90
25877;DHT22;13692;47.480;19.216;2023-08-06T12:17:56;19.90;99.90
25877;DHT22;13692;47.480;19.216;2023-08-06T12:20:23;20.00;99.90
25877;DHT22;13692;47.480;19.216;2023-08-06T12:22:50;20.00;99.90
25877;DHT22;13692;47.480;19.216;2023-08-06T12:25:17;19.90;99.90
25877;DHT22;13692;47.480;19.216;2023-08-06T12:27:44;19.90;99.90
25877;DHT22;13692;47.480;19.216;2023-08-06T12:30:13;19.80;99.90
25877;DHT22;13692;47.480;19.216;2023-08-06T12:32:40;19.80;99.90
25877;DHT22;13692;47.480;19.216;2023-08-06T12:35:08;19.70;99.90
25877;DHT22;13692;47.480;19.216;2023-08-06T12:37:35;19.70;99.90
25877;DHT22;13692;47.480;19.216;2023-08-06T12:40:02;19.70;99.90
25877;DHT22;13692;47.480;19.216;2023-08-06T12:42:50;19.70;99.90
25877;DHT22;13692;47.480;19.216;2023-08-06T12:45:17;19.70;99.90
25877;DHT22;13692;47.480;19.216;2023-08-06T12:47:48;19.80;99.90
25877;DHT22;13692;47.480;19.216;2023-08-06T12:50:16;19.80;99.90
25877;DHT22;13692;47.480;19.216;2023-08-06T12:52:44;19.80;99.90
25877;DHT22;13692;47.480;19.216;2023-08-06T12:55:11;19.70;99.90
25877;DHT22;13692;47.480;19.216;2023-08-06T12:57:38;19.70;99.90
25877;DHT22;13692;47.480;19.216;2023-08-06T13:00:22;19.80;99.90
25877;DHT22;13692;47.480;19.216;2023-08-06T13:02:50;19.70;99.90
25877;DHT22;13692;47.480;19.216;2023-08-06T13:05:17;19.70;99.90
25877;DHT22;13692;47.480;19.216;2023-08-06T13:07:45;19.60;99.90
25877;DHT22;13692;47.480;19.216;2023-08-06T13:10:12;19.60;99.90
25877;DHT22;13692;47.480;19.216;2023-08-06T13:12:39;19.60;99.90
25877;DHT22;13692;47.480;19.216;2023-08-06T13:15:07;19.50;99.90
25877;DHT22;13692;47.480;19.216;2023-08-06T13:17:35;19.50;99.90
25877;DHT22;13692;47.480;19.216;2023-08-06T13:20:03;19.50;99.90
25877;DHT22;13692;47.480;19.216;2023-08-06T13:22:31;19.50;99.90
25877;DHT22;13692;47.480;19.216;2023-08-06T13:24:58;19.30;99.90
25877;DHT22;13692;47.480;19.216;2023-08-06T13:27:25;19.30;99.90
25877;DHT22;13692;47.480;19.216;2023-08-06T13:29:52;19.20;99.90
25877;DHT22;13692;47.480;19.216;2023-08-06T13:32:19;19.10;99.90
25877;DHT22;13692;47.480;19.216;2023-08-06T13:34:47;19.10;99.90
25877;DHT22;13692;47.480;19.216;2023-08-06T13:37:14;19.10;99.90
25877;DHT22;13692;47.480;19.216;2023-08-06T13:39:41;19.00;99.90
25877;DHT22;13692;47.480;19.216;2023-08-06T13:42:09;19.00;99.90
25877;DHT22;13692;47.480;19.216;2023-08-06T13:44:36;19.00;99.90
25877;DHT22;13692;47.480;19.216;2023-08-06T13:47:03;19.10;99.90
25877;DHT22;13692;47.480;19.216;2023-08-06T13:49:31;19.10;99.90
25877;DHT22;13692;47.480;19.216;2023-08-06T13:52:15;19.10;99.90
25877;DHT22;13692;47.480;19.216;2023-08-06T13:54:48;19.10;99.90
25877;DHT22;13692;47.480;19.216;2023-08-06T13:57:16;19.20;99.90
25877;DHT22;13692;47.480;19.216;2023-08-06T13:59:46;19.20;99.90
25877;DHT22;13692;47.480;19.216;2023-08-06T14:02:13;19.20;99.90
25877;DHT22;13692;47.480;19.216;2023-08-06T14:04:41;19.20;99.90
25877;DHT22;13692;47.480;19.216;2023-08-06T14:07:09;19.10;99.90
25877;DHT22;13692;47.480;19.216;2023-08-06T14:09:37;19.10;99.90
25877;DHT22;13692;47.480;19.216;2023-08-06T14:12:05;19.10;99.90
25877;DHT22;13692;47.480;19.216;2023-08-06T14:14:32;19.00;99.90
25877;DHT22;13692;47.480;19.216;2023-08-06T14:17:01;19.00;99.90
25877;DHT22;13692;47.480;19.216;2023-08-06T14:19:29;19.00;99.90
25877;DHT22;13692;47.480;19.216;2023-08-06T14:21:57;19.00;99.90
25877;DHT22;13692;47.480;19.216;2023-08-06T14:24:24;19.00;99.90
25877;DHT22;13692;47.480;19.216;2023-08-06T14:26:51;19.00;99.90
25877;DHT22;13692;47.480;19.216;2023-08-06T14:29:19;19.00;99.90
25877;DHT22;13692;47.480;19.216;2023-08-06T14:31:46;19.10;99.90
25877;DHT22;13692;47.480;19.216;2023-08-06T14:34:13;19.20;99.90
25877;DHT22;13692;47.480;19.216;2023-08-06T14:36:41;19.20;99.90
25877;DHT22;13692;47.480;19.216;2023-08-06T14:39:08;19.30;99.90
25877;DHT22;13692;47.480;19.216;2023-08-06T14:41:35;19.20;99.90
25877;DHT22;13692;47.480;19.216;2023-08-06T14:44:04;19.30;99.90
25877;DHT22;13692;47.480;19.216;2023-08-06T14:46:31;19.30;99.90
25877;DHT22;13692;47.480;19.216;2023-08-06T14:48:59;19.30;99.90
25877;DHT22;13692;47.480;19.216;2023-08-06T14:51:26;19.40;99.90
25877;DHT22;13692;47.480;19.216;2023-08-06T14:53:53;19.40;99.90
25877;DHT22;13692;47.480;19.216;2023-08-06T14:56:21;19.50;99.90
25877;DHT22;13692;47.480;19.216;2023-08-06T14:58:48;19.50;99.90
25877;DHT22;13692;47.480;19.216;2023-08-06T15:01:16;19.60;99.90
25877;DHT22;13692;47.480;19.216;2023-08-06T15:03:43;19.70;99.90
25877;DHT22;13692;47.480;19.216;2023-08-06T15:06:10;19.70;99.90
25877;DHT22;13692;47.480;19.216;2023-08-06T15:08:37;19.70;99.90
25877;DHT22;13692;47.480;19.216;2023-08-06T15:11:05;19.70;99.90
25877;DHT22;13692;47.480;19.216;2023-08-06T15:13:32;19.60;99.90
25877;DHT22;13692;47.480;19.216;2023-08-06T15:15:59;19.60;99.90
25877;DHT22;13692;47.480;19.216;2023-08-06T15:18:26;19.60;99.90
25877;DHT22;13692;47.480;19.216;2023-08-06T15:20:55;19.50;99.90
25877;DHT22;13692;47.480;19.216;2023-08-06T15:23:23;19.50;99.90
25877;DHT22;13692;47.480;19.216;2023-08-06T15:25:51;19.40;99.90
25877;DHT22;13692;47.480;19.216;2023-08-06T15:28:19;19.40;99.90
25877;DHT22;13692;47.480;19.216;2023-08-06T15:30:51;19.40;99.90
25877;DHT22;13692;47.480;19.216;2023-08-06T15:33:19;19.40;99.90
25877;DHT22;13692;47.480;19.216;2023-08-06T15:35:47;19.40;99.90